Warren, Illinois
Current Conditions -  °F | °C
As of 5:15 AM on Wednesday 26 Nov 2014 (Local Time) from KEFT Reporting Station
Moderate Fog Moderate Fog  
Wind Chill:   Ceiling: 100
Heat Index: 12°   Visibility: 0.25mi
Dew Point: 12°   Wind: 5mph
Humidity: 100%   Direction: 90°E
Pressure: 30.09"   Gusts: NA
Location:  42.5°N, 89.99°W
Report Text: KEFT 261115Z AUTO 09004KT 1/4SM FZFG OVC001 M11/M11 A3009 RMK AO2
Loading
Personal Weather Stations






























Interactive Weather Map New forecast layout! Learn more

10-Day Weather Forecast

Advertisements
Track Severe Weather on mobile